LGL4541 ELLX-EGCC
Flight info
| Callsign | LGL4541 |
|---|---|
| Flight time | 1h 19m |
| Altitude | 38000 |
| Route | LNO N852 TERLA L608 COA/N0342F180 L179 LAM N57 WELIN T420 ELVOS |
| Aircraft | B738/M-SDE2E3FGHIRWXY/LB1 |
Departure
| Time | 2026-05-01 12:15 |
|---|---|
| Airport | Luxembourg-Findel International Airport (ELLX) |
Arrival
| Time | 2026-05-01 13:35 |
|---|---|
| Airport | Manchester Airport (EGCC) |
| Time | Latitude | Longitude | Altitude | Speed | Heading |
|---|---|---|---|---|---|
| 2026-05-01 11:48 | 49.63229 | 6.21610 | 1229 ft | 0 kts | 240° |
| 2026-05-01 12:09 | 49.63219 | 6.21584 | 1229 ft | 0 kts | 239° |
| 2026-05-01 12:10 | 49.63218 | 6.21581 | 1229 ft | 1 kts | 239° |
| 2026-05-01 12:11 | 49.63139 | 6.21610 | 1228 ft | 15 kts | 150° |
| 2026-05-01 12:11 | 49.63094 | 6.21707 | 1224 ft | 7 kts | 66° |
| 2026-05-01 12:11 | 49.63121 | 6.21789 | 1225 ft | 0 kts | 65° |
| 2026-05-01 12:12 | 49.63140 | 6.21851 | 1225 ft | 14 kts | 66° |
| 2026-05-01 12:12 | 49.63145 | 6.22049 | 1223 ft | 19 kts | 129° |
| 2026-05-01 12:12 | 49.63044 | 6.22140 | 1214 ft | 18 kts | 156° |
| 2026-05-01 12:12 | 49.63000 | 6.22111 | 1213 ft | 0 kts | 239° |
| 2026-05-01 12:14 | 49.62999 | 6.22108 | 1213 ft | 0 kts | 239° |
| 2026-05-01 12:14 | 49.62997 | 6.22103 | 1213 ft | 3 kts | 239° |
| 2026-05-01 12:14 | 49.62905 | 6.21856 | 1214 ft | 59 kts | 240° |
| 2026-05-01 12:15 | 49.62588 | 6.21007 | 1238 ft | 121 kts | 239° |
| 2026-05-01 12:15 | 49.62077 | 6.19614 | 1223 ft | 174 kts | 237° |
| 2026-05-01 12:15 | 49.61486 | 6.17950 | 1871 ft | 167 kts | 239° |
| 2026-05-01 12:15 | 49.60958 | 6.16357 | 2636 ft | 175 kts | 239° |
| 2026-05-01 12:16 | 49.60395 | 6.14532 | 2969 ft | 203 kts | 248° |
| 2026-05-01 12:16 | 49.60286 | 6.12242 | 3162 ft | 232 kts | 285° |
| 2026-05-01 12:16 | 49.61244 | 6.10160 | 3427 ft | 250 kts | 328° |
| 2026-05-01 12:16 | 49.62895 | 6.09453 | 4069 ft | 252 kts | 5° |
| 2026-05-01 12:17 | 49.64685 | 6.09983 | 4385 ft | 271 kts | 15° |
| 2026-05-01 12:17 | 49.66567 | 6.10585 | 5061 ft | 281 kts | 12° |
| 2026-05-01 12:17 | 49.68516 | 6.11062 | 5834 ft | 285 kts | 9° |
| 2026-05-01 12:17 | 49.70485 | 6.11425 | 6609 ft | 288 kts | 7° |
| 2026-05-01 12:18 | 49.72489 | 6.11711 | 7327 ft | 291 kts | 5° |
| 2026-05-01 12:18 | 49.74532 | 6.11948 | 8087 ft | 294 kts | 5° |
| 2026-05-01 12:18 | 49.76583 | 6.12152 | 8865 ft | 296 kts | 5° |
| 2026-05-01 12:18 | 49.78654 | 6.12340 | 9605 ft | 300 kts | 4° |
| 2026-05-01 12:19 | 49.80746 | 6.12519 | 10182 ft | 303 kts | 5° |
| 2026-05-01 12:19 | 49.82868 | 6.12699 | 10277 ft | 306 kts | 4° |
| 2026-05-01 12:19 | 49.84966 | 6.12875 | 10271 ft | 306 kts | 3° |
| 2026-05-01 12:19 | 49.87099 | 6.12526 | 10288 ft | 307 kts | 343° |
| 2026-05-01 12:20 | 49.89095 | 6.11425 | 10299 ft | 310 kts | 340° |
| 2026-05-01 12:20 | 49.91113 | 6.10233 | 10296 ft | 311 kts | 339° |
| 2026-05-01 12:20 | 49.93133 | 6.09038 | 10287 ft | 309 kts | 339° |
| 2026-05-01 12:20 | 49.95136 | 6.07865 | 10278 ft | 307 kts | 340° |
| 2026-05-01 12:21 | 49.97140 | 6.06701 | 10279 ft | 308 kts | 340° |
| 2026-05-01 12:21 | 49.99149 | 6.05542 | 10284 ft | 309 kts | 340° |
| 2026-05-01 12:21 | 50.01160 | 6.04385 | 10290 ft | 310 kts | 340° |
| 2026-05-01 12:21 | 50.03185 | 6.03222 | 10283 ft | 310 kts | 340° |
| 2026-05-01 12:22 | 50.05208 | 6.02060 | 10266 ft | 310 kts | 340° |
| 2026-05-01 12:22 | 50.07232 | 6.00896 | 10271 ft | 310 kts | 340° |
| 2026-05-01 12:22 | 50.09177 | 5.99778 | 10273 ft | 310 kts | 340° |
| 2026-05-01 12:22 | 50.11199 | 5.98615 | 10276 ft | 309 kts | 340° |
| 2026-05-01 12:23 | 50.13214 | 5.97454 | 10282 ft | 308 kts | 340° |
| 2026-05-01 12:23 | 50.15226 | 5.96295 | 10276 ft | 308 kts | 340° |
| 2026-05-01 12:23 | 50.17239 | 5.95134 | 10275 ft | 308 kts | 340° |
| 2026-05-01 12:23 | 50.19251 | 5.93972 | 10268 ft | 309 kts | 340° |
| 2026-05-01 12:24 | 50.21265 | 5.92807 | 10271 ft | 309 kts | 340° |
| 2026-05-01 12:24 | 50.23280 | 5.91640 | 10277 ft | 309 kts | 340° |
| 2026-05-01 12:24 | 50.25293 | 5.90474 | 10272 ft | 309 kts | 340° |
| 2026-05-01 12:24 | 50.27313 | 5.89302 | 10269 ft | 309 kts | 340° |
| 2026-05-01 12:25 | 50.29328 | 5.88133 | 10276 ft | 309 kts | 340° |
| 2026-05-01 12:25 | 50.33358 | 5.85791 | 10271 ft | 309 kts | 340° |
| 2026-05-01 12:25 | 50.35352 | 5.84630 | 10261 ft | 309 kts | 340° |
| 2026-05-01 12:26 | 50.37388 | 5.83443 | 10259 ft | 308 kts | 340° |
| 2026-05-01 12:26 | 50.41385 | 5.81112 | 10265 ft | 308 kts | 340° |
| 2026-05-01 12:26 | 50.43393 | 5.79939 | 10266 ft | 308 kts | 340° |
| 2026-05-01 12:27 | 50.45403 | 5.78763 | 10260 ft | 308 kts | 340° |
| 2026-05-01 12:27 | 50.49421 | 5.76410 | 10256 ft | 308 kts | 340° |
| 2026-05-01 12:28 | 50.53433 | 5.74057 | 10264 ft | 308 kts | 340° |
| 2026-05-01 12:28 | 50.55437 | 5.72880 | 10258 ft | 308 kts | 340° |
| 2026-05-01 12:28 | 50.59457 | 5.70563 | 10257 ft | 308 kts | 343° |
| 2026-05-01 12:29 | 50.61509 | 5.69607 | 10264 ft | 308 kts | 345° |
| 2026-05-01 12:29 | 50.63577 | 5.68683 | 10265 ft | 309 kts | 345° |
| 2026-05-01 12:29 | 50.67550 | 5.66232 | 10249 ft | 309 kts | 317° |
| 2026-05-01 12:30 | 50.69571 | 5.60466 | 10282 ft | 303 kts | 285° |
| 2026-05-01 12:30 | 50.70204 | 5.57296 | 10274 ft | 304 kts | 284° |
| 2026-05-01 12:30 | 50.70826 | 5.54100 | 10267 ft | 304 kts | 284° |
| 2026-05-01 12:31 | 50.71447 | 5.50916 | 10264 ft | 304 kts | 284° |
| 2026-05-01 12:31 | 50.72074 | 5.47726 | 10269 ft | 304 kts | 284° |
| 2026-05-01 12:31 | 50.72706 | 5.44533 | 10272 ft | 305 kts | 284° |
| 2026-05-01 12:31 | 50.73341 | 5.41340 | 10262 ft | 305 kts | 284° |
| 2026-05-01 12:32 | 50.73974 | 5.38157 | 10273 ft | 304 kts | 284° |
| 2026-05-01 12:32 | 50.75243 | 5.31792 | 10258 ft | 303 kts | 284° |
| 2026-05-01 12:32 | 50.75874 | 5.28623 | 10257 ft | 302 kts | 284° |
| 2026-05-01 12:33 | 50.76503 | 5.25461 | 10258 ft | 301 kts | 284° |
| 2026-05-01 12:33 | 50.77129 | 5.22303 | 10260 ft | 301 kts | 284° |
| 2026-05-01 12:33 | 50.77754 | 5.19149 | 10258 ft | 301 kts | 284° |
| 2026-05-01 12:33 | 50.78378 | 5.15999 | 10257 ft | 300 kts | 284° |
| 2026-05-01 12:34 | 50.79001 | 5.12850 | 10260 ft | 300 kts | 284° |
| 2026-05-01 12:34 | 50.79624 | 5.09693 | 10253 ft | 301 kts | 284° |
| 2026-05-01 12:34 | 50.80245 | 5.06538 | 10256 ft | 300 kts | 284° |
| 2026-05-01 12:34 | 50.80862 | 5.03389 | 10260 ft | 301 kts | 283° |
| 2026-05-01 12:35 | 50.81470 | 5.00220 | 10252 ft | 301 kts | 283° |
| 2026-05-01 12:35 | 50.82049 | 4.97186 | 10257 ft | 302 kts | 283° |
| 2026-05-01 12:35 | 50.82655 | 4.94001 | 10257 ft | 302 kts | 283° |
| 2026-05-01 12:35 | 50.83260 | 4.90817 | 10254 ft | 303 kts | 283° |
| 2026-05-01 12:36 | 50.83660 | 4.88711 | 10255 ft | 303 kts | 283° |
| 2026-05-01 12:36 | 50.84470 | 4.84442 | 10258 ft | 303 kts | 283° |
| 2026-05-01 12:36 | 50.85075 | 4.81249 | 10257 ft | 303 kts | 283° |
| 2026-05-01 12:36 | 50.85477 | 4.79125 | 10252 ft | 303 kts | 283° |
| 2026-05-01 12:37 | 50.86080 | 4.75934 | 10252 ft | 303 kts | 283° |
| 2026-05-01 12:37 | 50.86682 | 4.72741 | 10254 ft | 302 kts | 283° |
| 2026-05-01 12:37 | 50.87283 | 4.69552 | 10260 ft | 302 kts | 283° |
| 2026-05-01 12:37 | 50.87883 | 4.66365 | 10271 ft | 302 kts | 283° |
| 2026-05-01 12:38 | 50.88481 | 4.63183 | 10268 ft | 301 kts | 283° |
| 2026-05-01 12:38 | 50.89076 | 4.60006 | 10260 ft | 301 kts | 283° |
| 2026-05-01 12:38 | 50.89668 | 4.56841 | 10265 ft | 300 kts | 283° |
| 2026-05-01 12:38 | 50.90290 | 4.53682 | 10262 ft | 300 kts | 289° |
| 2026-05-01 12:39 | 50.91227 | 4.50721 | 10272 ft | 302 kts | 298° |
| 2026-05-01 12:39 | 50.92326 | 4.47875 | 10269 ft | 302 kts | 300° |
| 2026-05-01 12:39 | 50.93453 | 4.45066 | 10267 ft | 303 kts | 300° |
| 2026-05-01 12:39 | 50.94582 | 4.42248 | 10266 ft | 303 kts | 300° |
| 2026-05-01 12:40 | 50.95704 | 4.39416 | 10271 ft | 303 kts | 300° |
| 2026-05-01 12:40 | 50.96820 | 4.36567 | 10267 ft | 304 kts | 299° |
| 2026-05-01 12:40 | 50.97928 | 4.33715 | 10264 ft | 304 kts | 299° |
| 2026-05-01 12:40 | 50.99033 | 4.30851 | 10262 ft | 304 kts | 299° |
| 2026-05-01 12:41 | 51.00134 | 4.27985 | 10263 ft | 304 kts | 299° |
| 2026-05-01 12:41 | 51.01233 | 4.25115 | 10259 ft | 304 kts | 299° |
| 2026-05-01 12:41 | 51.02331 | 4.22239 | 10260 ft | 304 kts | 299° |
| 2026-05-01 12:41 | 51.03429 | 4.19361 | 10254 ft | 304 kts | 298° |
| 2026-05-01 12:42 | 51.04523 | 4.16486 | 10242 ft | 304 kts | 298° |
| 2026-05-01 12:42 | 51.05615 | 4.13611 | 10235 ft | 304 kts | 298° |
| 2026-05-01 12:42 | 51.06708 | 4.10730 | 10235 ft | 304 kts | 298° |
| 2026-05-01 12:42 | 51.07796 | 4.07859 | 10236 ft | 303 kts | 298° |
| 2026-05-01 12:43 | 51.08884 | 4.04987 | 10244 ft | 303 kts | 298° |
| 2026-05-01 12:43 | 51.09973 | 4.02109 | 10236 ft | 304 kts | 298° |
| 2026-05-01 12:43 | 51.11002 | 3.99383 | 10233 ft | 303 kts | 298° |
| 2026-05-01 12:43 | 51.12076 | 3.96536 | 10224 ft | 303 kts | 298° |
| 2026-05-01 12:44 | 51.13162 | 3.93656 | 10218 ft | 303 kts | 298° |
| 2026-05-01 12:44 | 51.14245 | 3.90780 | 10223 ft | 303 kts | 298° |
| 2026-05-01 12:44 | 51.16411 | 3.85017 | 10222 ft | 303 kts | 298° |
| 2026-05-01 12:45 | 51.18573 | 3.79248 | 10221 ft | 303 kts | 298° |
| 2026-05-01 12:45 | 51.19655 | 3.76358 | 10219 ft | 304 kts | 298° |
| 2026-05-01 12:45 | 51.20739 | 3.73461 | 10222 ft | 304 kts | 298° |
| 2026-05-01 12:46 | 51.21820 | 3.70569 | 10219 ft | 304 kts | 298° |
| 2026-05-01 12:46 | 51.22901 | 3.67674 | 10211 ft | 304 kts | 298° |
| 2026-05-01 12:46 | 51.23978 | 3.64782 | 10211 ft | 303 kts | 298° |
| 2026-05-01 12:46 | 51.25052 | 3.61894 | 10215 ft | 302 kts | 298° |
| 2026-05-01 12:47 | 51.26124 | 3.59011 | 10223 ft | 302 kts | 298° |
| 2026-05-01 12:47 | 51.27195 | 3.56126 | 10213 ft | 302 kts | 298° |
| 2026-05-01 12:47 | 51.28264 | 3.53241 | 10220 ft | 303 kts | 298° |
| 2026-05-01 12:47 | 51.29354 | 3.50295 | 10318 ft | 317 kts | 298° |
| 2026-05-01 12:48 | 51.30493 | 3.47214 | 10873 ft | 324 kts | 298° |
| 2026-05-01 12:48 | 51.31642 | 3.44109 | 11600 ft | 326 kts | 298° |
| 2026-05-01 12:48 | 51.32800 | 3.40971 | 12299 ft | 330 kts | 298° |
| 2026-05-01 12:48 | 51.33975 | 3.37787 | 12980 ft | 335 kts | 297° |
| 2026-05-01 12:49 | 51.35118 | 3.34522 | 13714 ft | 337 kts | 292° |
| 2026-05-01 12:49 | 51.36010 | 3.31050 | 14456 ft | 337 kts | 287° |
| 2026-05-01 12:49 | 51.36806 | 3.27511 | 15184 ft | 339 kts | 286° |
| 2026-05-01 12:49 | 51.37600 | 3.23941 | 15885 ft | 342 kts | 287° |
| 2026-05-01 12:50 | 51.38418 | 3.20351 | 16583 ft | 346 kts | 287° |
| 2026-05-01 12:50 | 51.39264 | 3.16730 | 17284 ft | 349 kts | 288° |
| 2026-05-01 12:50 | 51.40124 | 3.13078 | 17982 ft | 352 kts | 288° |
| 2026-05-01 12:50 | 51.40980 | 3.09449 | 18647 ft | 355 kts | 288° |
| 2026-05-01 12:51 | 51.41857 | 3.05728 | 19234 ft | 358 kts | 288° |
| 2026-05-01 12:51 | 51.42740 | 3.01973 | 19808 ft | 362 kts | 288° |
| 2026-05-01 12:51 | 51.44482 | 2.94544 | 20907 ft | 370 kts | 288° |
| 2026-05-01 12:52 | 51.45390 | 2.90665 | 21471 ft | 373 kts | 288° |
| 2026-05-01 12:52 | 51.47228 | 2.82786 | 22527 ft | 383 kts | 287° |
| 2026-05-01 12:52 | 51.48164 | 2.78759 | 23057 ft | 387 kts | 287° |
| 2026-05-01 12:53 | 51.50056 | 2.70606 | 24089 ft | 393 kts | 287° |
| 2026-05-01 12:53 | 51.51010 | 2.66482 | 24555 ft | 395 kts | 287° |
| 2026-05-01 12:53 | 51.51969 | 2.62336 | 25055 ft | 397 kts | 287° |
| 2026-05-01 12:54 | 51.52931 | 2.58165 | 25539 ft | 399 kts | 287° |
| 2026-05-01 12:54 | 51.54749 | 2.49718 | 26437 ft | 400 kts | 279° |
| 2026-05-01 12:54 | 51.55149 | 2.45318 | 26909 ft | 397 kts | 271° |
| 2026-05-01 12:55 | 51.55548 | 2.36441 | 27824 ft | 401 kts | 269° |
| 2026-05-01 12:55 | 51.55746 | 2.31954 | 28241 ft | 403 kts | 270° |
| 2026-05-01 12:55 | 51.55955 | 2.27458 | 28651 ft | 405 kts | 270° |
| 2026-05-01 12:56 | 51.56174 | 2.22926 | 29060 ft | 408 kts | 270° |
| 2026-05-01 12:56 | 51.56398 | 2.18373 | 29467 ft | 410 kts | 270° |
| 2026-05-01 12:56 | 51.56624 | 2.13803 | 29865 ft | 412 kts | 270° |
| 2026-05-01 12:56 | 51.56848 | 2.09216 | 30238 ft | 414 kts | 270° |
| 2026-05-01 12:57 | 51.57071 | 2.04602 | 30561 ft | 416 kts | 270° |
| 2026-05-01 12:57 | 51.57500 | 1.95553 | 31173 ft | 419 kts | 270° |
| 2026-05-01 12:57 | 51.57719 | 1.90877 | 31485 ft | 421 kts | 270° |
| 2026-05-01 12:58 | 51.57938 | 1.86180 | 31788 ft | 422 kts | 270° |
| 2026-05-01 12:58 | 51.58156 | 1.81463 | 32074 ft | 424 kts | 270° |
| 2026-05-01 12:58 | 51.58372 | 1.76725 | 32339 ft | 426 kts | 270° |
| 2026-05-01 12:59 | 51.58802 | 1.67180 | 32873 ft | 430 kts | 270° |
| 2026-05-01 12:59 | 51.59015 | 1.62386 | 33134 ft | 431 kts | 270° |
| 2026-05-01 12:59 | 51.59438 | 1.52731 | 33636 ft | 434 kts | 270° |
| 2026-05-01 13:00 | 51.59856 | 1.43003 | 34147 ft | 437 kts | 270° |
| 2026-05-01 13:00 | 51.60063 | 1.38123 | 34345 ft | 439 kts | 270° |
| 2026-05-01 13:01 | 51.60476 | 1.28266 | 34610 ft | 445 kts | 270° |
| 2026-05-01 13:01 | 51.60680 | 1.23292 | 34804 ft | 446 kts | 270° |
| 2026-05-01 13:01 | 51.61083 | 1.13325 | 35195 ft | 447 kts | 270° |
| 2026-05-01 13:02 | 51.61282 | 1.08324 | 35362 ft | 449 kts | 270° |
| 2026-05-01 13:07 | 51.69060 | 0.07472 | 38172 ft | 452 kts | 312° |
| 2026-05-01 13:07 | 51.71286 | 0.03886 | 38154 ft | 452 kts | 313° |
| 2026-05-01 13:08 | 51.75674 | -0.03129 | 38170 ft | 453 kts | 313° |
| 2026-05-01 13:08 | 51.80114 | -0.10356 | 38158 ft | 455 kts | 312° |
| 2026-05-01 13:09 | 51.84554 | -0.17688 | 38161 ft | 457 kts | 311° |
| 2026-05-01 13:09 | 51.88967 | -0.25019 | 38119 ft | 442 kts | 311° |
| 2026-05-01 13:09 | 51.91062 | -0.28499 | 38048 ft | 424 kts | 311° |
| 2026-05-01 13:10 | 51.93105 | -0.31901 | 37748 ft | 418 kts | 311° |
| 2026-05-01 13:10 | 51.95133 | -0.35288 | 37035 ft | 422 kts | 311° |
| 2026-05-01 13:10 | 51.97204 | -0.38761 | 35937 ft | 437 kts | 311° |
| 2026-05-01 13:10 | 51.99354 | -0.42368 | 34894 ft | 450 kts | 311° |
| 2026-05-01 13:11 | 52.01550 | -0.46054 | 33939 ft | 460 kts | 311° |
| 2026-05-01 13:11 | 52.03790 | -0.49814 | 33264 ft | 461 kts | 311° |
| 2026-05-01 13:11 | 52.06005 | -0.53531 | 32756 ft | 457 kts | 311° |
| 2026-05-01 13:11 | 52.08212 | -0.57239 | 32248 ft | 454 kts | 311° |
| 2026-05-01 13:12 | 52.10399 | -0.60924 | 31766 ft | 451 kts | 310° |
| 2026-05-01 13:12 | 52.12563 | -0.64577 | 31310 ft | 447 kts | 310° |
| 2026-05-01 13:12 | 52.14710 | -0.68207 | 30850 ft | 444 kts | 310° |
| 2026-05-01 13:12 | 52.16844 | -0.71824 | 30394 ft | 441 kts | 310° |
| 2026-05-01 13:13 | 52.18956 | -0.75408 | 29901 ft | 438 kts | 310° |
| 2026-05-01 13:13 | 52.21058 | -0.78978 | 29379 ft | 434 kts | 310° |
| 2026-05-01 13:13 | 52.23137 | -0.82513 | 28905 ft | 430 kts | 310° |
| 2026-05-01 13:13 | 52.25329 | -0.85831 | 28406 ft | 430 kts | 319° |
| 2026-05-01 13:14 | 52.27819 | -0.88539 | 27935 ft | 430 kts | 326° |
| 2026-05-01 13:14 | 52.30379 | -0.91028 | 27434 ft | 427 kts | 326° |
| 2026-05-01 13:14 | 52.32937 | -0.93488 | 26970 ft | 425 kts | 326° |
| 2026-05-01 13:14 | 52.35465 | -0.95945 | 26519 ft | 422 kts | 326° |
| 2026-05-01 13:15 | 52.37976 | -0.98418 | 26065 ft | 419 kts | 325° |
| 2026-05-01 13:15 | 52.40360 | -1.00790 | 25662 ft | 417 kts | 325° |
| 2026-05-01 13:15 | 52.42830 | -1.03262 | 25215 ft | 415 kts | 325° |
| 2026-05-01 13:15 | 52.45280 | -1.05720 | 24776 ft | 413 kts | 325° |
| 2026-05-01 13:16 | 52.47723 | -1.08172 | 24325 ft | 411 kts | 325° |
| 2026-05-01 13:16 | 52.50163 | -1.10623 | 23874 ft | 410 kts | 325° |
| 2026-05-01 13:16 | 52.52588 | -1.13063 | 23375 ft | 409 kts | 325° |
| 2026-05-01 13:17 | 52.59768 | -1.20301 | 22009 ft | 401 kts | 325° |
| 2026-05-01 13:17 | 52.62133 | -1.22691 | 21583 ft | 398 kts | 325° |
| 2026-05-01 13:18 | 52.66821 | -1.27437 | 20729 ft | 393 kts | 325° |
| 2026-05-01 13:18 | 52.69146 | -1.29795 | 20314 ft | 391 kts | 325° |
| 2026-05-01 13:18 | 52.71457 | -1.32142 | 19879 ft | 390 kts | 325° |
| 2026-05-01 13:18 | 52.73762 | -1.34489 | 19398 ft | 390 kts | 325° |
| 2026-05-01 13:19 | 52.76070 | -1.36841 | 18953 ft | 389 kts | 326° |
| 2026-05-01 13:19 | 52.78363 | -1.39182 | 18501 ft | 388 kts | 325° |
| 2026-05-01 13:19 | 52.82951 | -1.43873 | 17497 ft | 386 kts | 325° |
| 2026-05-01 13:20 | 52.85228 | -1.46205 | 17032 ft | 384 kts | 326° |
| 2026-05-01 13:20 | 52.87489 | -1.48524 | 16580 ft | 382 kts | 326° |
| 2026-05-01 13:20 | 52.89742 | -1.50838 | 16134 ft | 380 kts | 326° |
| 2026-05-01 13:21 | 52.94204 | -1.55429 | 15260 ft | 376 kts | 326° |
| 2026-05-01 13:21 | 52.96420 | -1.57713 | 14820 ft | 374 kts | 326° |
| 2026-05-01 13:21 | 52.98627 | -1.59992 | 14379 ft | 373 kts | 326° |
| 2026-05-01 13:21 | 53.00815 | -1.62252 | 13951 ft | 371 kts | 326° |
| 2026-05-01 13:22 | 53.03006 | -1.64518 | 13468 ft | 370 kts | 326° |
| 2026-05-01 13:22 | 53.05168 | -1.66801 | 13002 ft | 367 kts | 321° |
| 2026-05-01 13:22 | 53.06970 | -1.69719 | 12563 ft | 359 kts | 306° |
| 2026-05-01 13:22 | 53.08006 | -1.71850 | 12290 ft | 357 kts | 306° |
| 2026-05-01 13:23 | 53.09581 | -1.75030 | 11866 ft | 354 kts | 307° |
| 2026-05-01 13:23 | 53.11184 | -1.78193 | 11449 ft | 352 kts | 307° |
| 2026-05-01 13:23 | 53.12750 | -1.81250 | 11048 ft | 350 kts | 307° |
| 2026-05-01 13:23 | 53.14331 | -1.84321 | 10640 ft | 348 kts | 308° |
| 2026-05-01 13:24 | 53.15901 | -1.87371 | 10244 ft | 346 kts | 308° |
| 2026-05-01 13:24 | 53.17455 | -1.90395 | 10071 ft | 337 kts | 307° |
| 2026-05-01 13:24 | 53.18944 | -1.93291 | 10043 ft | 322 kts | 307° |
| 2026-05-01 13:25 | 53.22542 | -1.97138 | 9862 ft | 308 kts | 351° |
| 2026-05-01 13:25 | 53.24637 | -1.96950 | 9750 ft | 299 kts | 14° |
| 2026-05-01 13:25 | 53.26632 | -1.95950 | 9535 ft | 294 kts | 19° |
| 2026-05-01 13:25 | 53.28542 | -1.94866 | 9213 ft | 295 kts | 20° |
| 2026-05-01 13:26 | 53.30476 | -1.93753 | 8975 ft | 292 kts | 20° |
| 2026-05-01 13:26 | 53.32372 | -1.92655 | 8854 ft | 284 kts | 20° |
| 2026-05-01 13:26 | 53.34211 | -1.91580 | 8623 ft | 277 kts | 20° |
| 2026-05-01 13:26 | 53.36026 | -1.90514 | 8185 ft | 277 kts | 20° |
| 2026-05-01 13:27 | 53.37852 | -1.89437 | 7723 ft | 278 kts | 20° |
| 2026-05-01 13:27 | 53.39661 | -1.88364 | 7393 ft | 273 kts | 20° |
| 2026-05-01 13:27 | 53.43192 | -1.86339 | 6888 ft | 258 kts | 9° |
| 2026-05-01 13:28 | 53.46237 | -1.87832 | 6683 ft | 215 kts | 321° |
| 2026-05-01 13:28 | 53.47432 | -1.89248 | 6357 ft | 208 kts | 317° |
| 2026-05-01 13:29 | 53.48451 | -1.93358 | 5410 ft | 198 kts | 266° |
| 2026-05-01 13:29 | 53.48447 | -1.98057 | 4645 ft | 193 kts | 265° |
| 2026-05-01 13:30 | 53.46232 | -2.05010 | 3579 ft | 174 kts | 229° |
| 2026-05-01 13:31 | 53.44745 | -2.08107 | 2963 ft | 168 kts | 229° |
| 2026-05-01 13:31 | 53.42605 | -2.12530 | 2331 ft | 164 kts | 229° |
| 2026-05-01 13:32 | 53.41195 | -2.15445 | 1878 ft | 161 kts | 229° |
| 2026-05-01 13:33 | 53.39162 | -2.19653 | 1234 ft | 142 kts | 228° |
| 2026-05-01 13:33 | 53.37953 | -2.22155 | 865 ft | 136 kts | 231° |
| 2026-05-01 13:34 | 53.36710 | -2.24724 | 441 ft | 145 kts | 232° |
| 2026-05-01 13:34 | 53.35502 | -2.27235 | 240 ft | 120 kts | 230° |
| 2026-05-01 13:35 | 53.34867 | -2.28564 | 236 ft | 12 kts | 255° |
| 2026-05-01 13:35 | 53.34894 | -2.28645 | 235 ft | 10 kts | 318° |
| 2026-05-01 13:35 | 53.34950 | -2.28720 | 232 ft | 0 kts | 322° |
| 2026-05-01 13:37 | 53.34950 | -2.28721 | 232 ft | 0 kts | 322° |
| 2026-05-01 13:37 | 53.35002 | -2.28744 | 232 ft | 12 kts | 19° |
| 2026-05-01 13:38 | 53.35140 | -2.28491 | 232 ft | 13 kts | 51° |
| 2026-05-01 13:38 | 53.35184 | -2.28397 | 232 ft | 0 kts | 51° |
| 2026-05-01 13:39 | 53.35191 | -2.28383 | 232 ft | 5 kts | 51° |
| 2026-05-01 13:39 | 53.35222 | -2.28318 | 232 ft | 9 kts | 50° |
| 2026-05-01 13:39 | 53.35275 | -2.28243 | 232 ft | 11 kts | 33° |
| 2026-05-01 13:40 | 53.35348 | -2.28181 | 232 ft | 13 kts | 19° |
| 2026-05-01 13:40 | 53.35441 | -2.28155 | 234 ft | 13 kts | 10° |
| 2026-05-01 13:40 | 53.35504 | -2.28115 | 233 ft | 10 kts | 30° |
| 2026-05-01 13:40 | 53.35557 | -2.28043 | 232 ft | 9 kts | 49° |
| 2026-05-01 13:41 | 53.35594 | -2.27969 | 233 ft | 8 kts | 51° |
| 2026-05-01 13:41 | 53.35637 | -2.27895 | 232 ft | 10 kts | 21° |
| 2026-05-01 13:41 | 53.35711 | -2.27881 | 232 ft | 12 kts | 6° |
| 2026-05-01 13:41 | 53.35774 | -2.27870 | 232 ft | 0 kts | 7° |
| 2026-05-01 13:46 | 53.35784 | -2.27868 | 232 ft | 5 kts | 7° |
| 2026-05-01 13:46 | 53.35844 | -2.27858 | 232 ft | 12 kts | 7° |
| 2026-05-01 13:46 | 53.35940 | -2.27842 | 233 ft | 12 kts | 6° |
| 2026-05-01 13:47 | 53.36044 | -2.27832 | 232 ft | 17 kts | 351° |
| 2026-05-01 13:47 | 53.36142 | -2.27976 | 232 ft | 20 kts | 320° |
| 2026-05-01 13:47 | 53.36230 | -2.28124 | 232 ft | 19 kts | 311° |
| 2026-05-01 13:47 | 53.36327 | -2.28288 | 232 ft | 21 kts | 315° |
| 2026-05-01 13:48 | 53.36440 | -2.28482 | 232 ft | 24 kts | 313° |
| 2026-05-01 13:48 | 53.36537 | -2.28642 | 232 ft | 13 kts | 314° |
| 2026-05-01 13:48 | 53.36574 | -2.28731 | 232 ft | 8 kts | 287° |
| 2026-05-01 13:48 | 53.36620 | -2.28778 | 232 ft | 8 kts | 5° |